createdAt,value
2018-09-01T00:01:15.142Z,10.84
2018-09-01T00:03:43.470Z,10.75
2018-09-01T00:06:11.825Z,10.95
2018-09-01T00:08:40.149Z,10.79
2018-09-01T00:11:08.462Z,10.72
2018-09-01T00:13:36.786Z,10.90
2018-09-01T00:16:05.149Z,10.83
2018-09-01T00:18:33.492Z,10.47
2018-09-01T00:21:01.798Z,10.72
2018-09-01T00:23:30.093Z,10.43
2018-09-01T00:25:58.432Z,10.54
2018-09-01T00:28:26.738Z,10.66
2018-09-01T00:30:55.094Z,10.53
2018-09-01T00:33:23.370Z,10.32
2018-09-01T00:35:51.759Z,10.18
2018-09-01T00:38:25.297Z,10.40
2018-09-01T00:40:53.607Z,10.11
2018-09-01T00:43:21.960Z,10.33
2018-09-01T00:45:50.282Z,10.12
2018-09-01T00:48:18.634Z,9.72
2018-09-01T00:50:46.959Z,9.85
2018-09-01T00:53:15.256Z,9.98
2018-09-01T00:55:43.610Z,9.81
2018-09-01T00:58:11.902Z,10.03
2018-09-01T01:00:40.230Z,9.80
2018-09-01T01:03:08.516Z,9.82
2018-09-01T01:05:36.837Z,9.90
2018-09-01T01:08:05.141Z,9.93
2018-09-01T01:10:33.460Z,9.71
2018-09-01T01:13:01.827Z,9.68
2018-09-01T01:15:30.189Z,9.87
2018-09-01T01:17:58.500Z,9.83
2018-09-01T01:20:26.959Z,9.82
2018-09-01T01:22:55.277Z,9.45
2018-09-01T01:25:23.628Z,9.71
2018-09-01T01:27:51.972Z,9.68
2018-09-01T01:30:20.322Z,9.65
2018-09-01T01:32:48.643Z,9.52
2018-09-01T01:35:17.134Z,9.65
2018-09-01T01:37:45.487Z,9.37
2018-09-01T01:40:13.936Z,9.38
2018-09-01T01:42:42.250Z,8.83
2018-09-01T01:45:10.621Z,9.01
2018-09-01T01:47:40.742Z,9.04
2018-09-01T01:50:10.567Z,8.81
2018-09-01T01:52:39.073Z,9.11
2018-09-01T01:55:07.708Z,9.09
2018-09-01T01:57:40.924Z,9.31
2018-09-01T02:00:09.978Z,9.05
2018-09-01T02:02:38.741Z,8.80
2018-09-01T02:05:08.862Z,8.86
2018-09-01T02:07:37.177Z,9.03
2018-09-01T02:10:12.452Z,8.94
2018-09-01T02:12:40.752Z,9.08
2018-09-01T02:15:09.279Z,9.04
2018-09-01T02:17:37.608Z,9.18
2018-09-01T02:20:06.018Z,8.84
2018-09-01T02:22:34.367Z,8.50
2018-09-01T02:25:02.765Z,8.40
2018-09-01T02:27:31.124Z,8.43
2018-09-01T02:30:00.149Z,8.72
2018-09-01T02:32:28.475Z,8.76
2018-09-01T02:34:56.803Z,8.81
2018-09-01T02:37:25.154Z,8.79
2018-09-01T02:39:53.510Z,8.85
2018-09-01T02:42:21.829Z,8.96
2018-09-01T02:44:50.146Z,8.99
2018-09-01T02:47:18.518Z,9.14
2018-09-01T02:49:46.842Z,9.02
2018-09-01T02:52:15.799Z,9.39
2018-09-01T02:54:44.153Z,9.07
2018-09-01T02:57:12.428Z,9.12
2018-09-01T02:59:40.735Z,9.14
2018-09-01T03:02:09.053Z,9.21
2018-09-01T03:04:37.439Z,9.23
2018-09-01T03:07:06.079Z,9.19
2018-09-01T03:09:34.428Z,9.18
2018-09-01T03:12:02.766Z,9.11
2018-09-01T03:14:31.099Z,8.99
2018-09-01T03:16:59.519Z,9.09
2018-09-01T03:19:27.857Z,9.04
2018-09-01T03:21:56.174Z,9.04
2018-09-01T03:24:24.511Z,8.99
2018-09-01T03:26:53.036Z,9.04
2018-09-01T03:29:21.446Z,8.99
2018-09-01T03:31:49.788Z,8.95
2018-09-01T03:34:18.092Z,8.79
2018-09-01T03:36:46.440Z,8.95
2018-09-01T03:39:14.829Z,8.96
2018-09-01T03:41:43.161Z,8.85
2018-09-01T03:44:11.798Z,8.64
2018-09-01T03:46:40.106Z,8.74
2018-09-01T03:49:09.614Z,8.87
2018-09-01T03:51:38.014Z,8.82
2018-09-01T03:54:06.643Z,8.72
2018-09-01T03:56:35.014Z,8.73
2018-09-01T03:59:03.457Z,8.74
2018-09-01T04:01:31.786Z,8.45
2018-09-01T04:04:00.108Z,8.80
2018-09-01T04:06:28.852Z,8.48
2018-09-01T04:08:57.221Z,8.58
2018-09-01T04:11:25.543Z,8.54
2018-09-01T04:13:53.872Z,8.69
2018-09-01T04:16:22.257Z,8.56
2018-09-01T04:18:50.576Z,8.63
2018-09-01T04:21:19.114Z,8.54
2018-09-01T04:23:47.463Z,8.49
2018-09-01T04:26:15.759Z,8.44
2018-09-01T04:28:44.111Z,8.41
2018-09-01T04:31:12.448Z,8.33
2018-09-01T04:33:40.846Z,8.33
2018-09-01T04:36:09.229Z,8.42
2018-09-01T04:38:37.658Z,8.33
2018-09-01T04:41:06.218Z,8.32
2018-09-01T04:43:34.634Z,8.26
2018-09-01T04:46:02.949Z,7.99
2018-09-01T04:48:31.257Z,8.31
2018-09-01T04:50:59.599Z,8.06
2018-09-01T04:53:27.994Z,7.89
2018-09-01T04:55:56.327Z,8.22
2018-09-01T04:58:24.666Z,8.22
2018-09-01T05:00:53.030Z,8.22
2018-09-01T05:03:21.288Z,8.23
2018-09-01T05:05:49.646Z,7.89
2018-09-01T05:08:17.943Z,7.89
2018-09-01T05:10:46.264Z,8.09
2018-09-01T05:13:14.604Z,8.10
2018-09-01T05:15:42.997Z,8.26
2018-09-01T05:18:11.395Z,8.29
2018-09-01T05:20:39.915Z,8.32
2018-09-01T05:23:08.499Z,8.48
2018-09-01T05:25:36.875Z,8.57
2018-09-01T05:28:05.355Z,8.64
2018-09-01T05:30:33.806Z,8.38
2018-09-01T05:33:02.459Z,8.63
2018-09-01T05:35:31.110Z,8.88
2018-09-01T05:38:00.265Z,8.96
2018-09-01T05:40:29.311Z,9.00
2018-09-01T05:42:58.058Z,9.15
2018-09-01T05:45:26.924Z,9.21
2018-09-01T05:47:57.575Z,9.19
2018-09-01T05:50:26.299Z,9.39
2018-09-01T05:52:54.639Z,9.28
2018-09-01T05:55:22.974Z,9.42
2018-09-01T05:57:51.692Z,9.59
2018-09-01T06:00:22.007Z,9.61
2018-09-01T06:02:51.853Z,9.72
2018-09-01T06:05:20.249Z,9.81
2018-09-01T06:07:48.930Z,10.05
2018-09-01T06:10:17.366Z,10.17
2018-09-01T06:12:46.355Z,10.26
2018-09-01T06:15:14.740Z,10.45
2018-09-01T06:17:43.307Z,10.59
2018-09-01T06:20:11.687Z,10.69
2018-09-01T06:22:40.274Z,10.87
2018-09-01T06:25:08.604Z,10.94
2018-09-01T06:27:41.374Z,11.21
2018-09-01T06:30:15.107Z,11.38
2018-09-01T06:32:43.473Z,11.50
2018-09-01T06:35:11.935Z,11.65
2018-09-01T06:37:40.366Z,11.76
2018-09-01T06:40:08.807Z,11.90
2018-09-01T06:42:37.107Z,11.85
2018-09-01T06:45:05.652Z,12.04
2018-09-01T06:47:34.389Z,12.16
2018-09-01T06:50:02.798Z,12.32
2018-09-01T06:52:31.208Z,12.43
2018-09-01T06:54:59.725Z,12.46
2018-09-01T06:57:28.054Z,12.44
2018-09-01T06:59:56.385Z,12.53
2018-09-01T07:02:24.724Z,12.54
2018-09-01T07:04:53.172Z,12.57
2018-09-01T07:07:21.514Z,12.55
2018-09-01T07:09:49.898Z,12.65
2018-09-01T07:12:18.275Z,12.65
2018-09-01T07:14:46.589Z,12.67
2018-09-01T07:17:14.963Z,12.75
2018-09-01T07:19:43.279Z,12.87
2018-09-01T07:22:11.607Z,12.82
2018-09-01T07:24:39.940Z,13.02
2018-09-01T07:27:08.501Z,12.90
2018-09-01T07:29:36.835Z,12.99
2018-09-01T07:32:05.175Z,12.99
2018-09-01T07:34:33.566Z,12.98
2018-09-01T07:37:01.918Z,13.08
2018-09-01T07:39:30.310Z,13.14
2018-09-01T07:41:58.633Z,13.06
2018-09-01T07:44:26.992Z,13.17
2018-09-01T07:46:55.277Z,13.32
2018-09-01T07:49:23.706Z,13.38
2018-09-01T07:51:53.186Z,13.28
2018-09-01T07:54:21.551Z,13.42
2018-09-01T07:56:50.385Z,13.44
2018-09-01T07:59:19.117Z,13.51
2018-09-01T08:01:47.563Z,13.73
2018-09-01T08:04:15.953Z,13.77
2018-09-01T08:06:44.281Z,13.71
2018-09-01T08:09:12.823Z,13.59
2018-09-01T08:11:57.439Z,13.79
2018-09-01T08:14:41.041Z,13.89
2018-09-01T08:17:09.542Z,14.09
2018-09-01T08:19:37.882Z,14.05
2018-09-01T08:22:06.409Z,14.08
2018-09-01T08:24:34.769Z,14.31
2018-09-01T08:27:03.141Z,14.09
2018-09-01T08:29:31.619Z,14.32
2018-09-01T08:31:59.924Z,14.61
2018-09-01T08:34:28.258Z,14.57
2018-09-01T08:36:56.615Z,14.61
2018-09-01T08:39:24.984Z,14.85
2018-09-01T08:41:53.331Z,14.81
2018-09-01T08:44:21.627Z,14.87
2018-09-01T08:46:49.991Z,14.86
2018-09-01T08:49:18.336Z,14.75
2018-09-01T08:51:46.646Z,15.33
2018-09-01T08:54:14.967Z,15.25
2018-09-01T08:56:43.379Z,15.10
2018-09-01T08:59:11.622Z,15.15
2018-09-01T09:01:39.934Z,15.06
2018-09-01T09:04:08.303Z,15.18
2018-09-01T09:06:36.752Z,15.25
2018-09-01T09:09:06.621Z,15.34
2018-09-01T09:11:35.396Z,15.34
2018-09-01T09:14:03.931Z,15.53
2018-09-01T09:16:32.282Z,15.63
2018-09-01T09:19:00.611Z,15.20
2018-09-01T09:21:28.963Z,15.19
2018-09-01T09:23:57.437Z,15.20
2018-09-01T09:26:25.959Z,15.29
2018-09-01T09:28:54.247Z,15.39
2018-09-01T09:31:22.735Z,15.10
2018-09-01T09:33:51.011Z,15.15
2018-09-01T09:36:19.379Z,15.45
2018-09-01T09:38:47.790Z,15.71
2018-09-01T09:41:16.147Z,15.50
2018-09-01T09:43:44.511Z,15.74
2018-09-01T09:46:12.927Z,15.71
2018-09-01T09:48:41.279Z,15.45
2018-09-01T09:51:09.942Z,15.80
2018-09-01T09:53:38.320Z,15.78
2018-09-01T09:56:06.860Z,15.99
2018-09-01T09:58:35.167Z,16.08
2018-09-01T10:01:06.555Z,16.09
2018-09-01T10:03:36.598Z,16.12
2018-09-01T10:06:04.916Z,16.15
2018-09-01T10:08:33.342Z,16.33
2018-09-01T10:11:01.931Z,16.12
2018-09-01T10:13:30.227Z,16.21
2018-09-01T10:15:58.766Z,16.34
2018-09-01T10:18:26.981Z,16.44
2018-09-01T10:20:55.351Z,16.46
2018-09-01T10:23:23.739Z,16.63
2018-09-01T10:25:52.124Z,16.53
2018-09-01T10:28:20.772Z,16.51
2018-09-01T10:30:49.334Z,16.62
2018-09-01T10:33:17.767Z,16.76
2018-09-01T10:35:46.074Z,16.86
2018-09-01T10:38:14.433Z,17.00
2018-09-01T10:40:42.772Z,17.05
2018-09-01T10:43:11.332Z,16.83
2018-09-01T10:45:39.714Z,16.94
2018-09-01T10:48:08.094Z,17.17
2018-09-01T10:50:36.553Z,17.12
2018-09-01T10:53:05.191Z,16.95
2018-09-01T10:55:33.578Z,16.89
2018-09-01T10:58:01.924Z,16.95
2018-09-01T11:00:30.223Z,17.28
2018-09-01T11:02:58.598Z,17.13
2018-09-01T11:05:26.981Z,17.09
2018-09-01T11:07:55.432Z,17.04
2018-09-01T11:10:23.874Z,17.28
2018-09-01T11:12:52.288Z,17.65
2018-09-01T11:15:20.662Z,17.84
2018-09-01T11:17:49.087Z,17.71
2018-09-01T11:20:17.408Z,17.69
2018-09-01T11:22:45.807Z,17.76
2018-09-01T11:25:14.426Z,18.15
2018-09-01T11:27:42.890Z,18.53
2018-09-01T11:30:11.890Z,18.41
2018-09-01T11:32:40.263Z,18.36
2018-09-01T11:35:08.848Z,17.96
2018-09-01T11:37:37.840Z,18.07
2018-09-01T11:40:06.823Z,18.29
2018-09-01T11:42:35.237Z,18.17
2018-09-01T11:45:03.534Z,18.53
2018-09-01T11:47:31.866Z,18.61
2018-09-01T11:50:00.307Z,18.83
2018-09-01T11:52:28.844Z,18.70
2018-09-01T11:54:57.833Z,18.94
2018-09-01T11:57:26.273Z,18.44
2018-09-01T11:59:54.795Z,18.28
2018-09-01T12:02:23.240Z,18.80
2018-09-01T12:04:51.532Z,19.11
2018-09-01T12:07:20.873Z,19.27
2018-09-01T12:09:49.353Z,19.09
2018-09-01T12:12:17.938Z,18.66
2018-09-01T12:14:46.433Z,18.44
2018-09-01T12:17:14.747Z,18.63
2018-09-01T12:19:43.046Z,18.90
2018-09-01T12:22:11.722Z,19.05
2018-09-01T12:24:40.054Z,19.02
2018-09-01T12:27:08.454Z,18.96
2018-09-01T12:29:36.833Z,18.88
2018-09-01T12:32:05.251Z,18.83
2018-09-01T12:34:33.599Z,18.97
2018-09-01T12:37:02.049Z,19.23
2018-09-01T12:39:30.428Z,19.33
2018-09-01T12:41:58.824Z,19.08
2018-09-01T12:44:27.157Z,19.10
2018-09-01T12:46:55.498Z,18.80
2018-09-01T12:49:24.208Z,19.00
2018-09-01T12:51:52.879Z,18.87
2018-09-01T12:54:21.242Z,19.02
2018-09-01T12:56:49.648Z,19.28
2018-09-01T12:59:18.018Z,19.37
2018-09-01T13:01:46.401Z,19.49
2018-09-01T13:04:14.859Z,19.34
2018-09-01T13:06:43.214Z,19.50
2018-09-01T13:09:11.623Z,19.58
2018-09-01T13:11:40.124Z,19.69
2018-09-01T13:14:08.682Z,19.19
2018-09-01T13:16:36.979Z,19.42
2018-09-01T13:19:05.431Z,19.38
2018-09-01T13:21:33.742Z,19.37
2018-09-01T13:24:02.197Z,19.53
2018-09-01T13:26:30.740Z,19.79
2018-09-01T13:28:59.074Z,19.67
2018-09-01T13:31:27.519Z,19.71
2018-09-01T13:33:56.036Z,19.74
2018-09-01T13:36:24.456Z,19.78
2018-09-01T13:38:52.870Z,19.44
2018-09-01T13:41:21.162Z,19.54
2018-09-01T13:43:49.479Z,19.51
2018-09-01T13:46:17.904Z,19.27
2018-09-01T13:48:46.300Z,19.39
2018-09-01T13:51:14.861Z,19.52
2018-09-01T13:53:44.247Z,19.78
2018-09-01T13:56:13.885Z,19.72
2018-09-01T13:58:42.263Z,20.01
2018-09-01T14:01:10.544Z,19.87
2018-09-01T14:03:38.885Z,19.87
2018-09-01T14:06:07.347Z,20.18
2018-09-01T14:08:35.687Z,20.21
2018-09-01T14:11:04.304Z,20.00
2018-09-01T14:13:32.822Z,19.83
2018-09-01T14:16:03.466Z,19.65
2018-09-01T14:18:35.114Z,19.36
2018-09-01T14:21:05.012Z,19.46
2018-09-01T14:23:33.404Z,19.50
2018-09-01T14:26:02.941Z,19.76
2018-09-01T14:28:31.807Z,20.00
2018-09-01T14:31:00.125Z,20.10
2018-09-01T14:33:28.731Z,19.82
2018-09-01T14:38:37.697Z,20.01
2018-09-01T14:41:07.031Z,20.23
2018-09-01T14:43:35.446Z,20.12
2018-09-01T14:46:03.795Z,19.68
2018-09-01T14:48:32.129Z,19.82
2018-09-01T14:51:00.462Z,19.61
2018-09-01T14:53:28.805Z,19.69
2018-09-01T14:55:57.228Z,19.88
2018-09-01T14:58:26.632Z,19.91
2018-09-01T15:00:55.110Z,20.13
2018-09-01T15:03:23.568Z,20.35
2018-09-01T15:05:51.959Z,20.49
2018-09-01T15:08:20.430Z,20.54
2018-09-01T15:10:48.826Z,20.38
2018-09-01T15:13:17.410Z,20.37
2018-09-01T15:15:45.767Z,20.26
2018-09-01T15:18:14.139Z,20.10
2018-09-01T15:20:46.590Z,20.02
2018-09-01T15:23:15.135Z,20.30
2018-09-01T15:25:43.488Z,20.28
2018-09-01T15:28:11.868Z,20.10
2018-09-01T15:30:40.214Z,20.02
2018-09-01T15:33:08.754Z,20.05
2018-09-01T15:35:37.166Z,20.18
2018-09-01T15:38:05.515Z,20.06
2018-09-01T15:40:34.266Z,19.81
2018-09-01T15:43:02.559Z,20.20
2018-09-01T15:45:31.498Z,20.19
2018-09-01T15:47:59.843Z,20.06
2018-09-01T15:50:28.307Z,19.90
2018-09-01T15:52:56.752Z,19.84
2018-09-01T15:55:28.498Z,19.87
2018-09-01T15:57:59.500Z,19.89
2018-09-01T16:01:01.580Z,20.03
2018-09-01T16:03:32.575Z,19.92
2018-09-01T16:06:01.066Z,19.88
2018-09-01T16:08:29.531Z,19.88
2018-09-01T16:10:57.963Z,19.87
2018-09-01T16:13:28.284Z,19.57
2018-09-01T16:15:57.546Z,19.68
2018-09-01T16:18:26.087Z,19.78
2018-09-01T16:20:54.633Z,20.04
2018-09-01T16:23:25.109Z,20.02
2018-09-01T16:25:53.463Z,19.83
2018-09-01T16:28:22.302Z,19.85
2018-09-01T16:30:50.743Z,19.90
2018-09-01T16:33:19.279Z,19.80
2018-09-01T16:35:47.785Z,19.78
2018-09-01T16:38:16.540Z,19.50
2018-09-01T16:40:45.074Z,19.49
2018-09-01T16:43:14.094Z,19.43
2018-09-01T16:45:42.456Z,19.31
2018-09-01T16:48:10.963Z,19.38
2018-09-01T16:50:39.382Z,19.36
2018-09-01T16:53:08.031Z,19.40
2018-09-01T16:55:36.430Z,19.67
2018-09-01T16:58:05.226Z,19.70
2018-09-01T17:00:33.845Z,19.57
2018-09-01T17:03:02.123Z,19.69
2018-09-01T17:05:30.461Z,19.61
2018-09-01T17:07:58.816Z,19.71
2018-09-01T17:10:27.095Z,19.64
2018-09-01T17:12:55.685Z,19.58
2018-09-01T17:15:24.038Z,19.64
2018-09-01T17:17:52.541Z,19.60
2018-09-01T17:20:21.427Z,19.57
2018-09-01T17:22:49.749Z,19.34
2018-09-01T17:25:18.073Z,19.42
2018-09-01T17:27:47.004Z,19.43
2018-09-01T17:30:15.475Z,19.31
2018-09-01T17:32:43.831Z,19.29
2018-09-01T17:35:12.439Z,18.96
2018-09-01T17:37:45.732Z,18.94
2018-09-01T17:40:16.055Z,18.96
2018-09-01T17:42:46.179Z,18.81
2018-09-01T17:45:14.769Z,18.79
2018-09-01T17:47:43.039Z,18.57
2018-09-01T17:50:11.618Z,18.54
2018-09-01T17:52:39.959Z,18.52
2018-09-01T17:55:08.755Z,18.43
2018-09-01T17:57:37.307Z,18.38
2018-09-01T18:00:05.950Z,18.41
2018-09-01T18:02:35.784Z,18.16
2018-09-01T18:05:04.792Z,18.05
2018-09-01T18:07:34.199Z,17.98
2018-09-01T18:10:03.163Z,17.88
2018-09-01T18:12:31.598Z,17.72
2018-09-01T18:14:59.946Z,17.61
2018-09-01T18:17:28.564Z,17.44
2018-09-01T18:19:57.512Z,17.31
2018-09-01T18:22:25.806Z,17.28
2018-09-01T18:24:54.129Z,17.14
2018-09-01T18:27:22.398Z,17.06
2018-09-01T18:29:50.786Z,16.99
2018-09-01T18:32:19.165Z,16.77
2018-09-01T18:34:47.431Z,16.68
2018-09-01T18:37:15.758Z,16.53
2018-09-01T18:39:44.103Z,16.46
2018-09-01T18:42:12.398Z,16.27
2018-09-01T18:44:40.727Z,16.22
2018-09-01T18:47:09.137Z,16.07
2018-09-01T18:49:37.577Z,16.05
2018-09-01T18:52:05.942Z,16.01
2018-09-01T18:54:35.526Z,15.91
2018-09-01T18:57:03.916Z,15.86
2018-09-01T18:59:32.271Z,15.78
2018-09-01T19:02:00.987Z,15.76
2018-09-01T19:04:29.350Z,15.54
2018-09-01T19:06:57.833Z,15.42
2018-09-01T19:09:26.307Z,15.41
2018-09-01T19:11:57.067Z,15.33
2018-09-01T19:14:25.366Z,15.32
2018-09-01T19:16:53.939Z,15.20
2018-09-01T19:19:23.034Z,15.12
2018-09-01T19:21:51.386Z,15.02
2018-09-01T19:24:19.879Z,14.83
2018-09-01T19:26:48.845Z,14.91
2018-09-01T19:29:18.006Z,14.74
2018-09-01T19:31:47.299Z,14.73
2018-09-01T19:34:15.983Z,14.72
2018-09-01T19:36:44.543Z,14.73
2018-09-01T19:39:13.558Z,14.64
2018-09-01T19:41:42.912Z,14.53
2018-09-01T19:44:11.402Z,14.18
2018-09-01T19:46:39.994Z,14.26
2018-09-01T19:49:08.827Z,14.29
2018-09-01T19:51:37.227Z,14.28
2018-09-01T19:54:05.815Z,14.23
2018-09-01T19:56:34.142Z,14.24
2018-09-01T19:59:02.570Z,14.13
2018-09-01T20:01:30.991Z,14.04
2018-09-01T20:03:59.394Z,13.91
2018-09-01T20:06:27.739Z,13.94
2018-09-01T20:08:56.063Z,13.95
2018-09-01T20:11:24.461Z,13.90
2018-09-01T20:13:52.811Z,13.93
2018-09-01T20:16:21.289Z,13.90
2018-09-01T20:18:49.695Z,13.69
2018-09-01T20:21:18.006Z,13.67
2018-09-01T20:23:46.303Z,13.48
2018-09-01T20:26:15.065Z,13.49
2018-09-01T20:28:43.413Z,13.34
2018-09-01T20:31:12.263Z,13.33
2018-09-01T20:33:40.574Z,13.33
2018-09-01T20:36:14.883Z,13.27
2018-09-01T20:38:43.673Z,13.20
2018-09-01T20:41:12.425Z,13.28
2018-09-01T20:43:40.744Z,13.39
2018-09-01T20:46:09.123Z,13.20
2018-09-01T20:48:37.512Z,12.99
2018-09-01T20:51:06.117Z,13.07
2018-09-01T20:53:34.551Z,13.23
2018-09-01T20:56:02.927Z,13.02
2018-09-01T20:58:31.282Z,12.91
2018-09-01T21:00:59.634Z,12.92
2018-09-01T21:03:27.996Z,12.99
2018-09-01T21:05:56.397Z,12.89
2018-09-01T21:08:24.742Z,12.75
2018-09-01T21:10:53.227Z,12.73
2018-09-01T21:13:21.609Z,12.74
2018-09-01T21:15:49.939Z,12.68
2018-09-01T21:18:18.278Z,12.63
2018-09-01T21:20:46.685Z,12.69
2018-09-01T21:23:15.139Z,12.80
2018-09-01T21:25:43.572Z,12.65
2018-09-01T21:28:12.038Z,12.63
2018-09-01T21:30:40.456Z,12.52
2018-09-01T21:33:08.838Z,12.57
2018-09-01T21:35:37.257Z,12.52
2018-09-01T21:38:05.663Z,12.47
2018-09-01T21:40:34.107Z,12.50
2018-09-01T21:43:02.543Z,12.43
2018-09-01T21:45:30.851Z,12.49
2018-09-01T21:48:00.343Z,12.39
2018-09-01T21:50:28.751Z,12.42
2018-09-01T21:52:57.059Z,12.40
2018-09-01T21:55:25.451Z,12.33
2018-09-01T21:57:53.956Z,12.18
2018-09-01T22:00:22.382Z,11.90
2018-09-01T22:02:50.756Z,11.87
2018-09-01T22:05:19.631Z,11.93
2018-09-01T22:07:48.178Z,12.04
2018-09-01T22:10:16.576Z,11.92
2018-09-01T22:12:45.052Z,11.73
2018-09-01T22:15:13.468Z,11.67
2018-09-01T22:17:41.797Z,11.80
2018-09-01T22:20:10.294Z,11.79
2018-09-01T22:22:38.629Z,11.67
2018-09-01T22:25:06.997Z,11.61
2018-09-01T22:27:35.418Z,11.70
2018-09-01T22:30:03.823Z,11.78
2018-09-01T22:32:32.206Z,11.67
2018-09-01T22:35:00.552Z,11.66
2018-09-01T22:37:28.890Z,11.67
2018-09-01T22:39:57.200Z,11.73
2018-09-01T22:42:25.592Z,11.68
2018-09-01T22:44:53.916Z,11.58
2018-09-01T22:47:25.178Z,11.56
2018-09-01T22:49:53.511Z,11.48
2018-09-01T22:52:21.982Z,11.54
2018-09-01T22:54:50.573Z,11.63
2018-09-01T22:57:19.203Z,11.58
2018-09-01T22:59:47.631Z,11.73
2018-09-01T23:02:16.176Z,11.75
2018-09-01T23:04:44.626Z,11.59
2018-09-01T23:07:13.227Z,11.70
2018-09-01T23:09:41.636Z,11.64
2018-09-01T23:12:09.996Z,11.72
2018-09-01T23:14:38.320Z,11.72
2018-09-01T23:17:06.774Z,11.91
2018-09-01T23:19:35.157Z,11.83
2018-09-01T23:22:03.505Z,11.75
2018-09-01T23:24:31.862Z,11.62
2018-09-01T23:27:00.207Z,11.67
2018-09-01T23:29:29.618Z,11.56
2018-09-01T23:31:57.985Z,11.53
2018-09-01T23:34:26.303Z,11.58
2018-09-01T23:36:54.649Z,11.57
2018-09-01T23:39:23.069Z,11.51
2018-09-01T23:41:51.515Z,11.43
2018-09-01T23:44:19.868Z,11.35
2018-09-01T23:46:48.256Z,11.54
2018-09-01T23:49:16.634Z,11.39
2018-09-01T23:51:44.973Z,11.34
2018-09-01T23:54:13.282Z,11.20
2018-09-01T23:56:41.616Z,11.21
2018-09-01T23:59:09.989Z,10.96
